NWS Home NWS Lubbock West Texas Mesonet Latest Conditions as of 0836 PM, Sun May 26, 2019

Latest   N   C   S   Daily Sum   3hrΔ   24hrΔ   Soil Data 
Site Map   24hr Precip   72hr Precip   Google Plot


Station Time of Last Temp Dew Pt. RH Wind Direction Wind Speed Wind Gust Max Wind Max Temp Min Temp Max RH Min RH Altimeter 1HR Rain Today's Rain Solar Rad Red FlagRFTI
Abernathy 5ENE  08:30 PM 72 64 79% S2227 36 mph 142° @ 0555 PM 75 63 96 79 29.88" 0 0.01 4   0
Adrian 6WSW  08:30 PM 56 52 88% S2528 53 mph 163° @ 0648 PM 78 53 97 55 29.94" 0.30 0.30 2   0
Aiken 3WSW  08:30 PM 71 67 87% SE2631 34 mph 153° @ 0702 PM 73 63 98 84 29.88" 0 0 4   0
Amarillo 15NNW   08:30 PM 71 69 94% S2232 38 mph 141° @ 0725 PM 73 61 100 87 29.86" 0 0.13 0   0
Amarillo 7SSE  08:30 PM 69 69 100% SE2226 37 mph 165° @ 0659 PM 71 62 100 93 29.89" 0 0.29 1   0
Amarillo 9NNE  08:30 PM 70 66 87% S2532 40 mph 162° @ 0813 PM 72 63 100 83 29.83" 0 0.50 1   0
Amherst 1NE  08:30 PM 71 64 82% SE1722 41 mph 134° @ 0505 PM 76 61 98 72 29.85" 0 0.01 2   0
Andrews 2E  08:30 PM 78 63 62% SE1624 32 mph 126° @ 0455 PM 82 68 84 54 29.88" 0 0 23   0
Anton 6SSW  08:30 PM 73 64 78% SE2732 36 mph 148° @ 0735 PM 76 62 97 73 29.84" 0 0 4   0
Aspermont 3NE  08:30 PM 79 66 67% SE1218 27 mph 155° @ 0405 PM 81 69 92 65 29.84" 0 0 17   0
Big Bend NP - Castolon  08:30 PM 88 55 33% SE1621 36 mph 114° @ 0557 PM 102 80 57 17 29.81" 0 0 25   0
Big Bend NP - Persimmon Gap  08:30 PM 84 55 36% SE1417 26 mph 147° @ 0656 PM 97 72 82 12 29.89" 0 0 23   0
Big Lake 1WNW  08:30 PM 79 64 61% S1721 35 mph 162° @ 0634 AM 82 69 92 59 29.92" 0 0 23   0
Bootleg 11WNW  08:30 PM 57 52 84% S1923 49 mph 152° @ 0651 PM 81 52 100 42 29.93" 0.42 0.42 51   0
Boys Ranch 1WSW  08:30 PM 60 54 79% W1622 39 mph 251° @ 0820 PM 77 60 99 52 29.97" 0.01 0.01 0   0
Brownfield 2S  08:30 PM 76 64 67% S2431 34 mph 154° @ 0805 PM 80 62 97 60 29.86" 0 0 23   0
Canadian 6E  08:30 PM 71 68 90% SE1924 30 mph 127° @ 0821 PM 76 62 100 79 29.79" 0 0.01 5   0
Caprock Canyons State Park  08:30 PM 72 68 86% S1822 28 mph 139° @ 0627 PM 73 63 100 85 29.87" 0 0.05 2   0
Childress 2NNE  08:30 PM 75 67 81% SE1722 26 mph 143° @ 0220 AM 77 69 97 73 29.82" 0 0.02 10   0
Clarendon 2WSW  08:30 PM 71 65 86% SE2128 32 mph 146° @ 0745 PM 72 62 96 85 29.85" 0 0.02 5   0
Claude 12SW  08:30 PM 69 69 100% SE1518 34 mph 136° @ 0625 PM 69 64 100 91 29.90" 0 0.09 2   0
Clyde 2WNW  08:30 PM 78 66 68% SE1621 33 mph 169° @ 0138 AM 85 67 94 57 29.92" 0 0 3   0
Colorado City 5NW  08:30 PM 79 65 62% S1418 30 mph 177° @ 1257 PM 83 69 87 62 29.89" 0 0 45   0
Coyanosa 2N  08:30 PM 81 65 57% SE2127 37 mph 141° @ 0813 PM 86 71 82 51 29.82" 0 0 16   0
Crane 1NNW   08:30 PM 79 65 62% S2428 40 mph 161° @ 0808 PM 82 72 85 60 29.85" 0 0 27   0
Crowell 1E  08:30 PM 78 68 72% SE1012 27 mph 184° @ 1242 PM 83 70 89 61 29.86" 0 0 19   0
Dell City  08:30 PM 84 29 13% W2126 35 mph 241° @ 0655 PM 93 58 86 10 29.83" 0 0 29 19 2
Denver City 7WNW  08:30 PM 74 62 69% SE2129 33 mph 154° @ 0750 PM 80 62 98 57 29.85" 0 0 20   0
Dimmitt 2NE  08:30 PM 70 64 85% S2025 42 mph 154° @ 0725 PM 73 58 100 79 29.89" 0 0.02 2   0
Dora NM 2SW  08:30 PM 65 60 89% NW3143 43 mph 321° @ 0830 PM 84 61 95 27 29.87" 0.27 0.27 14   0
Dozier 3W  08:30 PM 74 70 89% SE1319 26 mph 157° @ 0330 PM 74 64 100 82 29.85" 0 0.01 2   0
Earth 9WSW  08:30 PM 72 65 78% SE1518 40 mph 147° @ 0636 PM 77 58 99 67 29.86" 0 0.01 0   0
Endee NM 2SW  08:30 PM 56 52 88% SE1012 50 mph 154° @ 0639 PM 84 49 97 26 29.88" 0.03 0.53 29   0
Estelline 3SSE  08:30 PM 76 68 77% SE1420 23 mph 143° @ 1037 AM 79 70 94 71 29.81" 0 0 5   0
Floydada 2NNE  08:30 PM 71 66 85% SE1924 30 mph 150° @ 0745 PM 75 63 99 81 29.87" 0 0 5   0
Fluvanna 3WNW  08:30 PM 77 63 65% SE2026 33 mph 136° @ 0725 PM 79 67 90 64 29.88" 0 0 37   0
Fort Chadbourne  08:30 PM 79 67 67% SE1820 27 mph 156° @ 0345 PM 83 67 96 57 29.90" 0 0 13   0
Fort Lancaster  08:30 PM 82 66 59% SE1923 41 mph 138° @ 0714 PM 87 73 88 53 29.88" 0 0 17   0
Fort Lewis CO  08:30 PM 55 29 36% SE57 32 mph 212° @ 0246 PM 69 37 71 22 29.98" 0 0 22   0
Fort McKavett  08:30 PM 80 66 63% SE1121 30 mph 168° @ 0150 PM 87 68 86 51 29.96" 0 0 4   0
Friona 2NE  08:30 PM 70 61 79% SW1624 46 mph 148° @ 0705 PM 79 57 100 62 29.94" 0 0 0   0
Fritch 1WNW  08:30 PM 70 66 86% S2024 42 mph 167° @ 0731 PM 73 60 98 78 29.85" 0 0.43 2   0
Gail 2ESE  08:30 PM 78 64 65% SE1318 30 mph 143° @ 0550 PM 80 68 91 62 29.87" 0 0 33   0
Goodlett 3W  08:30 PM 77 68 78% SE1315 26 mph 160° @ 1150 AM 81 69 95 66 29.83" 0 0 28   0
Goodnight  08:30 PM 69 69 99% SE1619 29 mph 146° @ 0802 PM 69 60 100 95 29.90" 0 0.10 1   0
Graham 5SSW  08:30 PM 76 64 71% SE1723 37 mph 134° @ 0650 PM 77 67 96 67 29.87" 0 0 17   0
Guadalupe Mtns Natl Park  08:30 PM 81 20 11% SW68 38 mph 208° @ 0450 PM 85 61 91 11 29.97" 0 0 34 44 0
Guthrie 10WSW  08:30 PM 77 64 67% SE1521 29 mph 163° @ 1135 AM 79 68 95 67 29.83" 0 0 19   0
Hackberry 2 SSE  08:30 PM 78 68 71% SE1519 27 mph 165° @ 0341 PM 80 70 92 66 29.83" 0 0 15   0
Happy 1E  08:30 PM 70 67 90% S2227 39 mph 142° @ 0611 PM 72 58 100 83 29.90" 0 0.01 3   0
Hart 3N  08:30 PM 70 66 91% SE1722 37 mph 138° @ 0520 PM 73 58 100 85 29.87" 0 0.01 2   0
Haskell 1NW  08:30 PM 80 65 65% SE1017 30 mph 166° @ 0215 PM 84 69 91 56 29.87" 0 0 9   0
Hereford 2NW  08:30 PM 71 63 82% S1724 41 mph 152° @ 0735 PM 74 61 98 75 29.90" 0 0.05 0   0
Hobbs NM 5NW  08:30 PM 77 62 62% SE2225 35 mph 154° @ 0731 PM 82 67 85 45 29.88" 0 0.03 22   0
Jayton 1SSE  08:30 PM 78 65 66% SE1622 28 mph 174° @ 0115 PM 79 67 96 66 29.84" 0 0 46   0
Junction 1SSW  08:30 PM 81 67 62% S913 30 mph 153° @ 0337 PM 88 70 84 46 29.96" 0 0 2   0
Knox City 3NW  08:30 PM 80 67 67% SE1521 30 mph 165° @ 0110 PM 85 70 92 56 29.86" 0 0 14   0
Lake Alan Henry 1NW  08:30 PM 78 66 66% SE1216 26 mph 171° @ 1231 PM 79 69 91 63 29.86" 0 0 20   0
Lake McClellan 2NW  08:30 PM 69 67 92% S2024 34 mph 114° @ 0709 PM 69 62 99 88 29.88" 0 0.03 1   0
Lamesa 2SE  08:30 PM 77 64 66% SE2130 32 mph 155° @ 0705 PM 80 68 93 64 29.88" 0 0 19   0
Lesley 2S  08:30 PM 74 69 83% SE1821 26 mph 138° @ 0812 PM 75 64 100 79 29.82" 0 0.01 4   0
Levelland 4S  08:30 PM 74 63 70% SE2531 37 mph 149° @ 0725 PM 79 61 99 62 29.86" 0 0 6   0
Lomax 1SSE  08:30 PM 79 65 60% SE2226 32 mph 138° @ 0642 PM 84 70 90 55 29.87" 0 0 36   0
Lubbock 3WNW TTU  08:30 PM 74 64 73% SE1622 30 mph 150° @ 0710 PM 77 65 100 71 29.87" 0 0 5   0
McCamey 1SSW  08:30 PM 80 65 60% SE2024 37 mph 152° @ 0820 PM 84 72 84 59 29.87" 0 0 35   0
McLean 1E  08:30 PM 70 66 92% SE1928 30 mph 171° @ 0330 PM 70 63 100 91 29.83" 0 0 11   0
Memphis 1NE  08:30 PM 75 67 83% SE1317 24 mph 146° @ 0200 PM 76 64 99 80 29.83" 0 0.02 5   0
Menard 2NW   08:30 PM 80 68 67% SE1114 31 mph 154° @ 0207 PM 86 69 88 51 29.95" 0 0 2   0
Mertzon 3NNE  08:30 PM 80 66 61% S1520 28 mph 152° @ 0813 PM 84 69 90 57 29.89" 0 0 19   0
Morton 1ENE  08:30 PM 73 63 76% SE2128 34 mph 147° @ 0630 PM 78 62 100 65 29.83" 0 0.01 5   0
Muleshoe 2SSW  08:30 PM 73 64 77% SE1419 40 mph 152° @ 0715 PM 77 60 100 47 29.84" 0 0.02 8   0
New Home  08:30 PM 75 65 71% SE1823 32 mph 139° @ 0545 PM 78 65 94 66 29.88" 0 0 7   0
Northfield 1S  08:30 PM 75 66 78% SE1419 27 mph 146° @ 0750 PM 77 67 96 74 29.82" 0 0 6   0
O'Donnell 1N  08:30 PM 76 61 63% SE1725 30 mph 161° @ 0820 PM 78 67 88 59 29.87" 0 0 18   0
Odell 4ENE  08:30 PM 78 68 70% SE1315 29 mph 178° @ 0927 AM 82 70 89 61 29.86" 0 0 19   0
Paducah 10SW  08:30 PM 76 66 75% SE1822 28 mph 171° @ 1135 AM 77 68 96 74 29.81" 0 0 15   0
Palo Duro 4E (JA Ranch)  08:30 PM 72 69 90% SE1114 25 mph 129° @ 0644 PM 73 60 99 88 29.87" 0 0.03 1   0
Palo Duro Canyon SP Floor  08:30 PM 73 68 83% SE1012 30 mph 143° @ 0711 PM 73 63 99 82 29.88" 0 0.03 1   0
Palo Duro Canyon State Park Rim  08:30 PM 70 66 86% S1317 37 mph 147° @ 0606 PM 70 62 98 86 29.91" 0 0.03 1   0
Palo Duro Reservoir 1NW   08:30 PM 69 66 90% S2325 49 mph 144° @ 0711 PM 78 61 98 69 29.85" 0 0.30 1   0
Pampa 2E  08:30 PM 69 65 94% SE1924 36 mph 134° @ 0720 PM 72 61 100 84 29.88" 0 0.02 2   0
Panhandle 1SSW  08:30 PM 68 67 97% SE2124 41 mph 148° @ 0726 PM 71 63 100 86 29.89" 0 0.04 2   0
Plains 3N  08:30 PM 74 64 73% SE2431 35 mph 144° @ 0530 PM 79 62 97 63 29.85" 0 0 20   0
Plainview 1S  08:30 PM 71 67 91% SE1421 32 mph 140° @ 0615 PM 73 63 100 86 29.86" 0 0.02 5   0
Post 1NE  08:30 PM 77 65 67% SE1420 25 mph 165° @ 0155 PM 80 68 91 62 29.86" 0 0 10   0
Ralls 1SE  08:30 PM 72 64 80% SE1721 30 mph 125° @ 0540 PM 75 66 95 76 29.89" 0 0 6   0
Reese Center  08:30 PM 73 64 75% SE2432 36 mph 151° @ 0600 PM 77 63 94 70 29.86" 0 0 6   0
Roaring Springs 3N  08:30 PM 73 68 88% SE1519 27 mph 155° @ 0800 PM 75 66 100 86 29.85" 0 0 5   0
Romero 11 SSW  08:30 PM 53 52 95% SE1619 50 mph 261° @ 0732 PM 83 50 96 41 29.88" 0.16 0.24 3   0
Rotan 5W  08:30 PM 79 66 65% SE1721 32 mph 149° @ 0238 PM 82 68 92 61 29.86" 0 0 29   0
San Angelo 7NW  08:30 PM 80 63 57% SE1521 28 mph 146° @ 0315 PM 85 68 82 49 29.88" 0 0 14   0
Seagraves 1SW  08:30 PM 77 64 68% SE1523 33 mph 155° @ 0800 PM 80 63 93 62 29.86" 0 0 11   0
Segovia 7SSW  08:30 PM 79 67 66% SE811 30 mph 147° @ 1255 PM 86 68 86 50 30.01" 0 0 1   0
Seminole 2NNE  08:30 PM 77 62 63% SE2028 36 mph 137° @ 0420 PM 80 65 88 59 29.85" 0 0 25   0
Seymour 3NW  08:30 PM 80 65 63% SE1418 31 mph 166° @ 1150 AM 86 70 90 56 29.87" 0 0 8   0
Sierra Blanca 1SSE  08:30 PM 87 24 10% W1722 42 mph 188° @ 0351 PM 91 66 67 8 29.90" 0 0 35 135 3
Silverton 7ESE  08:30 PM 70 67 96% SE1723 31 mph 142° @ 0730 PM 72 64 100 94 29.88" 0 0.07 2   0
Slaton 2NE  08:30 PM 74 64 73% SE2024 35 mph 153° @ 0720 PM 78 64 96 68 29.87" 0 0 6   0
Smyer  08:30 PM 74 65 75% SE2229 29 mph 164° @ 0636 PM 78 62 98 67 29.86" 0 0 5   0
Snyder 3E  08:30 PM 78 64 66% S1722 35 mph 165° @ 0125 PM 80 68 94 65 29.88" 0 0 47   0
Snyder 3SSW  08:30 PM 78 66 65% S1519 28 mph 163° @ 1204 PM 81 69 89 64 29.89" 0 0 40   0
South Plains 3ENE  08:30 PM 71 67 87% SE1922 31 mph 134° @ 0659 PM 74 59 100 82 29.88" 0 0.04 5   0
Spur 1W  08:30 PM 75 64 72% SE1117 23 mph 175° @ 0125 PM 77 67 92 69 29.85" 0 0 12   0
St. Lawrence 5SW  08:30 PM 78 64 65% S2128 33 mph 137° @ 0655 PM 82 69 99 60 29.90" 0 0 28   0
Stamford 5ESE  08:30 PM 80 67 64% SE1518 36 mph 161° @ 1254 PM 86 70 86 52 29.87" 0 0 7   0
Sterling City 4WSW  08:30 PM 78 65 64% SE915 34 mph 154° @ 0155 PM 84 69 97 53 29.90" 0 0 29   0
Stinnett 1NNW  08:30 PM 69 67 93% S2026 56 mph 204° @ 0334 PM 72 59 100 81 29.87" 0 0.52 0   0
Sundown 8WSW  08:30 PM 74 63 73% SE1722 36 mph 151° @ 0710 PM 79 60 99 62 29.86" 0 0 21   0
Sweetwater 11SW   08:30 PM 78 65 65% SE2327 38 mph 161° @ 0304 AM 81 66 93 59 29.89" 0 0 23   0
Tahoka 3NNE  08:30 PM 75 64 69% SE1822 35 mph 168° @ 0722 PM 78 68 90 65 29.86" 0 0 13   0
Tarzan 2WNW  08:30 PM 78 65 63% SE1822 32 mph 153° @ 0731 PM 80 69 93 61 29.87" 0 0 18   0
Tatum NM 2SW  08:30 PM 75 61 65% SE2733 38 mph 147° @ 0725 PM 82 64 92 43 29.85" 0 0 56   0
Tulia 2ENE  08:30 PM 70 65 89% SE1724 35 mph 150° @ 0630 PM 71 59 99 88 29.89" 0 0.01 3   0
Turkey 2WSW  08:30 PM 74 67 82% SE1622 29 mph 128° @ 0815 PM 75 64 100 81 29.85" 0 0.02 3   0
Umbarger 3NNE  08:30 PM 70 66 89% S2128 41 mph 150° @ 0735 PM 72 61 100 82 29.89" 0 0.10 1   0
Van Horn 3ENE  08:30 PM 90 32 13% SW1618 36 mph 200° @ 0441 PM 94 68 72 11 29.85" 0 0 33 37 2
Vigo Park  08:30 PM 70 68 94% S1619 31 mph 140° @ 0621 PM 71 61 100 92 29.91" 0 0.09 2   0
Wall 2E  08:30 PM 82 66 58% SE1517 33 mph 149° @ 0448 PM 90 69 84 44 29.91" 0 0 8   0
Weinert 2NNE  08:30 PM 79 67 66% SE1113 34 mph 168° @ 0232 PM 85 70 86 54 29.88" 0 0 7   0
Welch  08:30 PM 77 65 67% SE2730 36 mph 146° @ 0529 PM 82 65 100 59 29.87" 0 0 16   0
White River Lake 6NW  08:30 PM 73 65 78% SE1013 24 mph 125° @ 0550 PM 76 66 94 74 29.87" 0 0 5   0
Wolfforth 6SSW  08:30 PM 74 64 74% SE2128 35 mph 139° @ 0530 PM 77 63 99 70 29.87" 0 0 6   0

West Texas Mesonet Home   Site Map/Menu  NWS Lubbock Soil Data  Daily Summary Page  24hr Precip  72hr Precip  Google Plot